23:14
Airports
History
Links
Donate
Help keep this website running!
PayPal
Bitcoin
Information on this page is community maintained and may be outdated or inaccurate and is intended for reference only or PC simulator navigating!
Always use approved charts for navigating.
RJA3
Ryugasaki
Ryugasaki (RJA3)
Kawachi-machi, Ibaraki Prefecture, Japan (300)
(C)
Lat/Lng:35° 54' 11.02" N / 140° 14' 41" E
35.903061 / 140.244721
Elevation:8'ft 2mMSL
ID / ICAO:RJA3
Runways:1
Longest:(26-08) 804.7m 2,640ft Asphalt
Controlled:Yes
Distance To
Airport ID:
Nearby VORs <50NM
Nearby NDBs
Nearby WeatherUpdated 04-28-17 04:12 GMT
Nearby weather at RJAK, Kasumigaura AB located 9.3 nautical miles from RJA3
Altimeter: 29.71
Visibility: 6.2 statute miles
Wind: 12 knots (080°)
Temp: 18°c 64°f
Humidity: 68.0%

METAR: RJAK 280412Z 08012KT 9999 FEW020 SCT050 18/12 Q1006 RMK 1CU020 3SC050 A2972

(Powered by phpweather)
Runway 26 / 08
Dimensions:804.7 x 35.1m 2640' x 115'ft
Surface:Asphalt
Runway 26 [A]Runway 08 [B]
Heading:252°TH 072°TH
Lat:
Lng:
35° 54' 14.92"N
140° 14' 56.25"E
35° 54' 7.12"N
140° 14' 25.74"E
Google Map
Nearby Airports
(C) Ohotone 3.3 NM
RJA2 S 180°
(C) Ami 8.2 NM
RJA1 N
(C) Kasumigaura AB 9.3 NM
RJAK (WX) NNW 342°
(C) NARITA INTL 11.8 NM
RJAA (WX) SE 139°
(C) SHIMOFUSA 14.9 NM
RJTL (WX) WSW 241°
(C) HYAKURI 21.4 NM
RJAH (WX) NNE 26°
(C) Tokyo Haneda Intl 35.4 NM
RJTT (WX) SW 225°
VFR Chart
Flight Planning at SkyVector.com